createdAt,value
2023-03-19T00:01:01.306Z,5
2023-03-19T00:02:17.857Z,6
2023-03-19T00:04:43.742Z,7
2023-03-19T00:05:57.890Z,4
2023-03-19T00:07:12.041Z,4
2023-03-19T00:08:26.143Z,5
2023-03-19T00:09:40.314Z,5
2023-03-19T00:10:54.412Z,6
2023-03-19T00:12:08.538Z,7
2023-03-19T00:13:22.717Z,5
2023-03-19T00:15:50.963Z,6
2023-03-19T00:17:05.107Z,4
2023-03-19T00:18:19.280Z,7
2023-03-19T00:20:47.478Z,7
2023-03-19T00:22:02.076Z,6
2023-03-19T00:23:15.885Z,12
2023-03-19T00:25:44.116Z,7
2023-03-19T00:26:58.146Z,14
2023-03-19T00:28:12.298Z,6
2023-03-19T00:30:40.594Z,7
2023-03-19T00:31:54.700Z,8
2023-03-19T00:33:08.839Z,7
2023-03-19T00:34:23.048Z,7
2023-03-19T00:36:51.225Z,5
2023-03-19T00:38:05.355Z,9
2023-03-19T00:39:19.508Z,6
2023-03-19T00:41:47.746Z,6
2023-03-19T00:43:01.987Z,6
2023-03-19T00:44:16.044Z,5
2023-03-19T00:46:44.442Z,4
2023-03-19T00:47:58.478Z,7
2023-03-19T00:49:12.640Z,7
2023-03-19T00:51:40.794Z,8
2023-03-19T00:52:55.030Z,6
2023-03-19T00:54:09.091Z,6
2023-03-19T00:55:23.206Z,6
2023-03-19T00:57:51.453Z,7
2023-03-19T00:59:05.629Z,6
2023-03-19T01:00:19.754Z,5
2023-03-19T01:02:48.022Z,10
2023-03-19T01:04:02.245Z,6
2023-03-19T01:05:16.367Z,6
2023-03-19T01:07:44.742Z,6
2023-03-19T01:08:58.701Z,5
2023-03-19T01:10:12.868Z,5
2023-03-19T01:12:41.044Z,6
2023-03-19T01:13:55.232Z,8
2023-03-19T01:15:09.378Z,7
2023-03-19T01:16:23.532Z,6
2023-03-19T01:18:51.748Z,7
2023-03-19T01:20:05.940Z,6
2023-03-19T01:21:20.075Z,6
2023-03-19T01:23:48.334Z,6
2023-03-19T01:25:02.418Z,6
2023-03-19T01:26:16.539Z,6
2023-03-19T01:28:44.917Z,7
2023-03-19T01:29:58.946Z,6
2023-03-19T01:31:13.189Z,6
2023-03-19T01:33:41.323Z,6
2023-03-19T01:34:55.484Z,10
2023-03-19T01:36:09.869Z,6
2023-03-19T01:37:23.743Z,7
2023-03-19T01:39:52.020Z,6
2023-03-19T01:41:06.152Z,7
2023-03-19T01:42:20.253Z,6
2023-03-19T01:44:48.566Z,4
2023-03-19T01:46:02.853Z,6
2023-03-19T01:47:16.788Z,9
2023-03-19T01:49:45.040Z,7
2023-03-19T01:50:59.274Z,7
2023-03-19T01:52:13.428Z,5
2023-03-19T01:54:41.684Z,5
2023-03-19T01:55:55.783Z,6
2023-03-19T01:57:09.953Z,5
2023-03-19T01:59:38.134Z,6
2023-03-19T02:00:52.272Z,4
2023-03-19T02:02:06.567Z,5
2023-03-19T02:03:20.528Z,5
2023-03-19T02:05:48.820Z,4
2023-03-19T02:07:03.038Z,6
2023-03-19T02:08:17.101Z,5
2023-03-19T02:10:45.369Z,8
2023-03-19T02:11:59.495Z,5
2023-03-19T02:13:13.679Z,6
2023-03-19T02:15:41.961Z,6
2023-03-19T02:16:56.047Z,5
2023-03-19T02:18:10.131Z,8
2023-03-19T02:19:24.318Z,4
2023-03-19T02:21:52.607Z,4
2023-03-19T02:23:06.689Z,6
2023-03-19T02:24:20.928Z,5
2023-03-19T02:26:49.160Z,5
2023-03-19T02:28:03.206Z,5
2023-03-19T02:29:17.644Z,6
2023-03-19T02:31:45.664Z,5
2023-03-19T02:32:59.871Z,6
2023-03-19T02:34:13.976Z,6
2023-03-19T02:36:42.171Z,6
2023-03-19T02:37:56.268Z,7
2023-03-19T02:39:10.385Z,4
2023-03-19T02:41:38.727Z,6
2023-03-19T02:42:52.802Z,6
2023-03-19T02:44:06.935Z,7
2023-03-19T02:45:21.092Z,8
2023-03-19T02:47:49.349Z,6
2023-03-19T02:49:03.462Z,6
2023-03-19T02:50:17.620Z,5
2023-03-19T02:52:45.862Z,6
2023-03-19T02:54:00.108Z,5
2023-03-19T02:55:14.219Z,6
2023-03-19T02:57:42.404Z,6
2023-03-19T02:58:56.540Z,10
2023-03-19T03:00:10.682Z,6
2023-03-19T03:02:38.964Z,5
2023-03-19T03:03:53.184Z,6
2023-03-19T03:05:07.234Z,6
2023-03-19T03:06:21.312Z,6
2023-03-19T03:08:49.633Z,7
2023-03-19T03:10:03.749Z,6
2023-03-19T03:11:17.905Z,6
2023-03-19T03:13:46.142Z,9
2023-03-19T03:15:00.334Z,6
2023-03-19T03:16:14.491Z,4
2023-03-19T03:18:42.704Z,7
2023-03-19T03:19:56.836Z,8
2023-03-19T03:21:10.924Z,5
2023-03-19T03:23:39.228Z,5
2023-03-19T03:24:53.431Z,7
2023-03-19T03:26:07.493Z,5
2023-03-19T03:27:21.611Z,5
2023-03-19T03:29:49.893Z,7
2023-03-19T03:31:04.041Z,5
2023-03-19T03:32:18.178Z,6
2023-03-19T03:34:46.435Z,8
2023-03-19T03:36:00.520Z,7
2023-03-19T03:37:14.832Z,6
2023-03-19T03:39:42.979Z,6
2023-03-19T03:40:57.080Z,11
2023-03-19T03:42:11.205Z,5
2023-03-19T03:44:39.508Z,6
2023-03-19T03:45:53.761Z,5
2023-03-19T03:47:07.796Z,5
2023-03-19T03:48:21.925Z,7
2023-03-19T03:50:50.169Z,4
2023-03-19T03:52:04.295Z,7
2023-03-19T03:53:18.483Z,6
2023-03-19T03:55:46.699Z,5
2023-03-19T03:58:15.045Z,6
2023-03-19T04:00:43.249Z,8
2023-03-19T04:01:57.422Z,6
2023-03-19T04:03:11.498Z,5
2023-03-19T04:05:39.874Z,6
2023-03-19T04:06:53.916Z,6
2023-03-19T04:08:08.037Z,4
2023-03-19T04:09:22.185Z,5
2023-03-19T04:11:51.628Z,4
2023-03-19T04:13:04.599Z,7
2023-03-19T04:14:18.700Z,6
2023-03-19T04:16:47.038Z,5
2023-03-19T04:18:01.274Z,5
2023-03-19T04:19:15.283Z,5
2023-03-19T04:21:43.551Z,7
2023-03-19T04:22:57.620Z,5
2023-03-19T04:24:11.819Z,7
2023-03-19T04:26:40.097Z,4
2023-03-19T04:27:54.228Z,6
2023-03-19T04:29:08.300Z,8
2023-03-19T04:30:22.523Z,6
2023-03-19T04:32:50.795Z,5
2023-03-19T04:34:04.938Z,5
2023-03-19T04:35:18.970Z,5
2023-03-19T04:37:47.234Z,4
2023-03-19T04:39:01.352Z,6
2023-03-19T04:40:15.510Z,5
2023-03-19T04:42:43.765Z,4
2023-03-19T04:43:57.885Z,5
2023-03-19T04:45:12.032Z,8
2023-03-19T04:46:26.238Z,6
2023-03-19T04:47:40.343Z,9
2023-03-19T04:48:54.503Z,6
2023-03-19T04:50:08.586Z,7
2023-03-19T04:51:22.696Z,5
2023-03-19T04:53:50.947Z,4
2023-03-19T04:55:05.163Z,5
2023-03-19T04:56:19.373Z,6
2023-03-19T04:58:47.492Z,5
2023-03-19T05:00:01.702Z,8
2023-03-19T05:01:15.769Z,7
2023-03-19T05:03:44.145Z,6
2023-03-19T05:04:58.165Z,5
2023-03-19T05:06:12.299Z,5
2023-03-19T05:08:40.558Z,5
2023-03-19T05:09:54.844Z,6
2023-03-19T05:11:08.817Z,6
2023-03-19T05:12:22.995Z,5
2023-03-19T05:14:51.230Z,8
2023-03-19T05:16:05.436Z,4
2023-03-19T05:17:19.632Z,7
2023-03-19T05:19:47.790Z,5
2023-03-19T05:21:01.911Z,5
2023-03-19T05:22:16.161Z,6
2023-03-19T05:24:44.418Z,6
2023-03-19T05:25:58.442Z,6
2023-03-19T05:27:12.640Z,7
2023-03-19T05:29:41.076Z,7
2023-03-19T05:30:55.096Z,6
2023-03-19T05:32:09.084Z,5
2023-03-19T05:33:23.330Z,4
2023-03-19T05:35:51.526Z,6
2023-03-19T05:37:05.655Z,6
2023-03-19T05:38:19.905Z,7
2023-03-19T05:40:48.187Z,10
2023-03-19T05:42:02.126Z,7
2023-03-19T05:43:16.338Z,7
2023-03-19T05:45:44.710Z,6
2023-03-19T05:46:58.750Z,5
2023-03-19T05:48:12.837Z,7
2023-03-19T05:50:41.082Z,5
2023-03-19T05:51:55.280Z,5
2023-03-19T05:53:09.409Z,5
2023-03-19T05:54:23.574Z,6
2023-03-19T05:56:51.752Z,5
2023-03-19T05:58:06.031Z,4
2023-03-19T05:59:20.039Z,7
2023-03-19T06:01:48.429Z,6
2023-03-19T06:03:02.620Z,4
2023-03-19T06:04:16.649Z,4
2023-03-19T06:06:44.983Z,4
2023-03-19T06:07:59.079Z,5
2023-03-19T06:09:13.153Z,6
2023-03-19T06:11:41.357Z,4
2023-03-19T06:12:55.516Z,5
2023-03-19T06:14:09.627Z,6
2023-03-19T06:15:23.804Z,3
2023-03-19T06:17:52.042Z,5
2023-03-19T06:19:06.168Z,4
2023-03-19T06:20:20.270Z,4
2023-03-19T06:22:48.655Z,4
2023-03-19T06:24:02.792Z,4
2023-03-19T06:25:16.869Z,4
2023-03-19T06:27:45.192Z,8
2023-03-19T06:28:59.240Z,5
2023-03-19T06:30:13.452Z,4
2023-03-19T06:32:41.631Z,7
2023-03-19T06:33:55.774Z,5
2023-03-19T06:35:09.900Z,5
2023-03-19T06:36:24.061Z,5
2023-03-19T06:38:55.438Z,5
2023-03-19T06:40:06.435Z,4
2023-03-19T06:41:20.578Z,5
2023-03-19T06:43:48.832Z,6
2023-03-19T06:45:03.016Z,5
2023-03-19T06:46:17.176Z,5
2023-03-19T06:48:45.352Z,4
2023-03-19T06:49:59.520Z,6
2023-03-19T06:51:13.703Z,3
2023-03-19T06:53:41.969Z,3
2023-03-19T06:54:56.060Z,6
2023-03-19T06:56:10.173Z,5
2023-03-19T06:57:24.321Z,4
2023-03-19T06:59:52.694Z,4
2023-03-19T07:01:06.712Z,6
2023-03-19T07:02:20.942Z,7
2023-03-19T07:04:49.093Z,4
2023-03-19T07:06:03.359Z,6
2023-03-19T07:07:17.421Z,6
2023-03-19T07:09:45.622Z,5
2023-03-19T07:10:59.787Z,4
2023-03-19T07:12:13.973Z,5
2023-03-19T07:14:42.178Z,4
2023-03-19T07:15:56.319Z,5
2023-03-19T07:17:10.543Z,4
2023-03-19T07:19:38.770Z,5
2023-03-19T07:20:52.937Z,5
2023-03-19T07:22:06.965Z,3
2023-03-19T07:23:21.101Z,6
2023-03-19T07:25:49.449Z,4
2023-03-19T07:27:03.520Z,4
2023-03-19T07:28:17.730Z,3
2023-03-19T07:30:45.888Z,6
2023-03-19T07:32:00.274Z,4
2023-03-19T07:33:14.222Z,6
2023-03-19T07:35:42.463Z,5
2023-03-19T07:36:56.711Z,5
2023-03-19T07:38:10.671Z,6
2023-03-19T07:40:43.386Z,5
2023-03-19T07:41:53.103Z,5
2023-03-19T07:43:07.234Z,4
2023-03-19T07:44:21.542Z,4
2023-03-19T07:46:49.645Z,5
2023-03-19T07:48:03.819Z,4
2023-03-19T07:49:17.953Z,4
2023-03-19T07:53:00.272Z,4
2023-03-19T07:54:14.458Z,4
2023-03-19T07:56:42.788Z,5
2023-03-19T07:57:56.882Z,4
2023-03-19T07:59:10.940Z,4
2023-03-19T08:01:39.365Z,6
2023-03-19T08:02:53.366Z,6
2023-03-19T08:04:07.563Z,4
2023-03-19T08:05:21.618Z,4
2023-03-19T08:07:49.919Z,5
2023-03-19T08:09:04.064Z,4
2023-03-19T08:10:18.245Z,5
2023-03-19T08:12:46.467Z,3
2023-03-19T08:14:00.556Z,5
2023-03-19T08:15:14.747Z,2
2023-03-19T08:17:43.036Z,3
2023-03-19T08:18:57.119Z,3
2023-03-19T08:20:11.224Z,3
2023-03-19T08:22:39.486Z,5
2023-03-19T08:23:53.719Z,3
2023-03-19T08:25:07.769Z,4
2023-03-19T08:26:22.007Z,4
2023-03-19T08:28:50.146Z,4
2023-03-19T08:30:04.324Z,3
2023-03-19T08:31:18.505Z,4
2023-03-19T08:33:46.719Z,6
2023-03-19T08:35:00.822Z,3
2023-03-19T08:36:14.952Z,5
2023-03-19T08:38:43.250Z,4
2023-03-19T08:39:57.354Z,6
2023-03-19T08:41:11.483Z,4
2023-03-19T08:43:39.783Z,4
2023-03-19T08:44:53.940Z,4
2023-03-19T08:46:08.096Z,4
2023-03-19T08:47:22.225Z,5
2023-03-19T08:49:50.450Z,3
2023-03-19T08:51:04.633Z,5
2023-03-19T08:52:18.826Z,6
2023-03-19T08:54:47.009Z,5
2023-03-19T08:56:01.114Z,5
2023-03-19T08:57:15.218Z,4
2023-03-19T08:59:43.617Z,7
2023-03-19T09:00:57.651Z,5
2023-03-19T09:02:11.757Z,4
2023-03-19T09:04:40.107Z,4
2023-03-19T09:05:54.216Z,5
2023-03-19T09:07:08.295Z,5
2023-03-19T09:08:22.476Z,3
2023-03-19T09:10:51.601Z,4
2023-03-19T09:12:04.809Z,7
2023-03-19T09:13:18.977Z,4
2023-03-19T09:15:47.251Z,8
2023-03-19T09:17:01.362Z,4
2023-03-19T09:18:15.508Z,5
2023-03-19T09:20:43.846Z,7
2023-03-19T09:21:57.904Z,6
2023-03-19T09:23:12.027Z,6
2023-03-19T09:24:26.332Z,6
2023-03-19T09:25:40.381Z,5
2023-03-19T09:26:54.530Z,5
2023-03-19T09:28:08.596Z,6
2023-03-19T09:30:36.836Z,6
2023-03-19T09:31:50.965Z,3
2023-03-19T09:33:05.149Z,5
2023-03-19T09:34:19.278Z,4
2023-03-19T09:36:47.504Z,3
2023-03-19T09:38:01.646Z,5
2023-03-19T09:39:15.769Z,5
2023-03-19T09:41:44.080Z,5
2023-03-19T09:42:58.173Z,5
2023-03-19T09:44:12.388Z,4
2023-03-19T09:46:40.570Z,6
2023-03-19T09:47:54.804Z,6
2023-03-19T09:49:08.826Z,8
2023-03-19T09:50:23.149Z,4
2023-03-19T09:52:51.214Z,4
2023-03-19T09:54:05.405Z,5
2023-03-19T09:55:19.509Z,4
2023-03-19T09:57:47.834Z,4
2023-03-19T09:59:01.909Z,4
2023-03-19T10:00:16.012Z,4
2023-03-19T10:02:44.329Z,5
2023-03-19T10:03:58.554Z,4
2023-03-19T10:05:12.551Z,5
2023-03-19T10:07:40.818Z,6
2023-03-19T10:08:54.966Z,6
2023-03-19T10:10:09.184Z,6
2023-03-19T10:11:23.271Z,5
2023-03-19T10:13:51.482Z,5
2023-03-19T10:15:05.641Z,14
2023-03-19T10:16:19.891Z,11
2023-03-19T10:18:48.542Z,5
2023-03-19T10:20:02.163Z,4
2023-03-19T10:21:16.322Z,5
2023-03-19T10:23:44.714Z,5
2023-03-19T10:24:58.723Z,4
2023-03-19T10:26:12.874Z,4
2023-03-19T10:28:41.115Z,4
2023-03-19T10:29:55.275Z,5
2023-03-19T10:31:09.384Z,5
2023-03-19T10:32:23.501Z,5
2023-03-19T10:34:51.782Z,4
2023-03-19T10:36:05.938Z,4
2023-03-19T10:37:20.094Z,4
2023-03-19T10:39:48.374Z,4
2023-03-19T10:41:02.425Z,4
2023-03-19T10:42:16.645Z,5
2023-03-19T10:44:44.976Z,4
2023-03-19T10:45:59.115Z,5
2023-03-19T10:47:13.247Z,5
2023-03-19T10:49:41.353Z,7
2023-03-19T10:50:55.512Z,7
2023-03-19T10:52:09.625Z,6
2023-03-19T10:53:23.798Z,6
2023-03-19T10:55:52.015Z,9
2023-03-19T10:57:06.164Z,10
2023-03-19T10:58:20.315Z,10
2023-03-19T11:00:48.761Z,6
2023-03-19T11:02:02.747Z,5
2023-03-19T11:03:16.832Z,5
2023-03-19T11:05:45.195Z,7
2023-03-19T11:06:59.309Z,8
2023-03-19T11:08:16.248Z,19
2023-03-19T11:10:41.624Z,28
2023-03-19T11:11:55.846Z,12
2023-03-19T11:13:09.915Z,20
2023-03-19T11:14:24.053Z,18
2023-03-19T11:16:52.420Z,34
2023-03-19T11:18:06.409Z,33
2023-03-19T11:19:20.544Z,35
2023-03-19T11:21:48.815Z,4
2023-03-19T11:23:03.013Z,5
2023-03-19T11:24:17.087Z,5
2023-03-19T11:26:45.447Z,5
2023-03-19T11:27:59.492Z,6
2023-03-19T11:29:13.690Z,5
2023-03-19T11:31:41.932Z,5
2023-03-19T11:32:56.096Z,5
2023-03-19T11:34:10.151Z,5
2023-03-19T11:35:24.365Z,5
2023-03-19T11:37:52.660Z,6
2023-03-19T11:39:06.735Z,4
2023-03-19T11:40:20.805Z,4
2023-03-19T11:42:49.089Z,5
2023-03-19T11:44:03.285Z,6
2023-03-19T11:45:17.387Z,4
2023-03-19T11:47:45.660Z,5
2023-03-19T11:48:59.797Z,5
2023-03-19T11:50:13.889Z,9
2023-03-19T11:52:42.152Z,5
2023-03-19T11:53:56.304Z,9
2023-03-19T11:55:10.390Z,7
2023-03-19T11:57:38.682Z,3
2023-03-19T11:58:53.052Z,3
2023-03-19T12:00:06.992Z,3
2023-03-19T12:01:21.048Z,6
2023-03-19T12:03:49.375Z,13
2023-03-19T12:05:03.585Z,20
2023-03-19T12:06:17.635Z,18
2023-03-19T12:08:45.861Z,5
2023-03-19T12:10:00.049Z,8
2023-03-19T12:11:14.161Z,42
2023-03-19T12:13:42.473Z,5
2023-03-19T12:14:56.558Z,6
2023-03-19T12:16:10.908Z,5
2023-03-19T12:18:38.975Z,3
2023-03-19T12:19:53.148Z,6
2023-03-19T12:21:07.206Z,3
2023-03-19T12:22:21.355Z,3
2023-03-19T12:24:49.646Z,3
2023-03-19T12:26:03.840Z,5
2023-03-19T12:27:17.878Z,5
2023-03-19T12:29:46.148Z,5
2023-03-19T12:31:00.438Z,3
2023-03-19T12:32:14.529Z,3
2023-03-19T12:34:42.724Z,3
2023-03-19T12:35:56.907Z,3
2023-03-19T12:37:10.921Z,2
2023-03-19T12:39:39.228Z,3
2023-03-19T12:40:53.406Z,6
2023-03-19T12:42:07.486Z,6
2023-03-19T12:43:21.598Z,5
2023-03-19T12:45:49.920Z,5
2023-03-19T12:47:04.027Z,4
2023-03-19T12:48:18.149Z,5
2023-03-19T12:50:46.497Z,13
2023-03-19T12:52:00.695Z,7
2023-03-19T12:53:14.754Z,5
2023-03-19T12:55:43.045Z,5
2023-03-19T12:56:57.121Z,8
2023-03-19T12:58:11.218Z,8
2023-03-19T13:00:39.601Z,10
2023-03-19T13:03:07.745Z,7
2023-03-19T13:04:21.999Z,12
2023-03-19T13:06:50.278Z,5
2023-03-19T13:08:04.337Z,3
2023-03-19T13:09:18.436Z,3
2023-03-19T13:11:46.702Z,3
2023-03-19T13:13:00.804Z,3
2023-03-19T13:14:15.015Z,9
2023-03-19T13:16:43.287Z,3
2023-03-19T13:17:57.350Z,4
2023-03-19T13:19:11.461Z,5
2023-03-19T13:21:39.748Z,2
2023-03-19T13:22:53.986Z,4
2023-03-19T13:24:08.013Z,2
2023-03-19T13:25:22.160Z,3
2023-03-19T13:27:50.492Z,2
2023-03-19T13:29:04.571Z,2
2023-03-19T13:30:18.705Z,2
2023-03-19T13:32:46.997Z,2
2023-03-19T13:34:01.109Z,4
2023-03-19T13:35:15.208Z,3
2023-03-19T13:37:43.512Z,2
2023-03-19T13:38:57.631Z,3
2023-03-19T13:40:11.740Z,2
2023-03-19T13:42:40.086Z,3
2023-03-19T13:43:54.141Z,2
2023-03-19T13:45:08.393Z,14
2023-03-19T13:46:22.436Z,5
2023-03-19T13:48:50.660Z,2
2023-03-19T13:50:04.942Z,3
2023-03-19T13:51:19.034Z,3
2023-03-19T13:53:47.250Z,2
2023-03-19T13:55:01.374Z,3
2023-03-19T13:56:28.487Z,3
2023-03-19T13:58:43.747Z,3
2023-03-19T13:59:57.875Z,2
2023-03-19T14:01:12.119Z,3
2023-03-19T14:03:40.325Z,3
2023-03-19T14:04:54.453Z,2
2023-03-19T14:06:08.605Z,2
2023-03-19T14:07:22.719Z,1
2023-03-19T14:09:50.937Z,2
2023-03-19T14:11:05.159Z,2
2023-03-19T14:12:19.305Z,2
2023-03-19T14:14:47.510Z,2
2023-03-19T14:16:01.666Z,2
2023-03-19T14:17:15.854Z,3
2023-03-19T14:19:44.341Z,4
2023-03-19T14:20:59.202Z,3
2023-03-19T14:22:12.677Z,4
2023-03-19T14:24:57.864Z,3
2023-03-19T14:25:54.709Z,2
2023-03-19T14:27:08.888Z,2
2023-03-19T14:28:22.970Z,2
2023-03-19T14:30:51.185Z,2
2023-03-19T14:32:05.438Z,3
2023-03-19T14:33:19.531Z,4
2023-03-19T14:35:47.770Z,4
2023-03-19T14:37:01.893Z,3
2023-03-19T14:38:16.067Z,5
2023-03-19T14:40:44.348Z,5
2023-03-19T14:41:58.493Z,5
2023-03-19T14:43:12.655Z,7
2023-03-19T14:45:40.833Z,4
2023-03-19T14:46:55.045Z,3
2023-03-19T14:48:09.091Z,3
2023-03-19T14:49:23.316Z,3
2023-03-19T14:51:51.471Z,157
2023-03-19T14:53:05.733Z,130
2023-03-19T14:54:21.445Z,81
2023-03-19T14:56:48.047Z,25
2023-03-19T14:58:02.246Z,8
2023-03-19T14:59:16.295Z,3
2023-03-19T15:01:44.610Z,16
2023-03-19T15:02:58.747Z,9
2023-03-19T15:04:12.894Z,5
2023-03-19T15:06:41.064Z,4
2023-03-19T15:07:55.286Z,6
2023-03-19T15:09:09.431Z,6
2023-03-19T15:10:23.563Z,6
2023-03-19T15:12:51.729Z,3
2023-03-19T15:14:05.903Z,3
2023-03-19T15:15:20.140Z,1
2023-03-19T15:18:02.700Z,2
2023-03-19T15:19:02.455Z,4
2023-03-19T15:20:16.552Z,3
2023-03-19T15:22:47.485Z,4
2023-03-19T15:23:58.967Z,4
2023-03-19T15:25:13.090Z,2
2023-03-19T15:27:41.332Z,2
2023-03-19T15:28:55.697Z,2
2023-03-19T15:30:16.146Z,4
2023-03-19T15:31:33.826Z,9
2023-03-19T15:33:52.207Z,4
2023-03-19T15:35:06.285Z,5
2023-03-19T15:36:20.259Z,5
2023-03-19T15:38:48.642Z,3
2023-03-19T15:40:02.696Z,3
2023-03-19T15:41:16.807Z,3
2023-03-19T15:43:45.245Z,11
2023-03-19T15:44:59.216Z,4
2023-03-19T15:46:13.456Z,7
2023-03-19T15:48:41.637Z,6
2023-03-19T15:49:55.786Z,3
2023-03-19T15:51:09.910Z,3
2023-03-19T15:53:38.156Z,3
2023-03-19T15:54:52.325Z,2
2023-03-19T15:56:06.422Z,2
2023-03-19T15:57:20.520Z,2
2023-03-19T15:59:48.899Z,1
2023-03-19T16:01:03.084Z,3
2023-03-19T16:02:17.207Z,2
2023-03-19T16:05:10.088Z,3
2023-03-19T16:05:59.564Z,1
2023-03-19T16:07:13.692Z,1
2023-03-19T16:09:41.883Z,3
2023-03-19T16:10:56.027Z,2
2023-03-19T16:12:10.234Z,3
2023-03-19T16:13:24.275Z,3
2023-03-19T16:15:52.598Z,6
2023-03-19T16:17:06.669Z,6
2023-03-19T16:18:20.771Z,10
2023-03-19T16:20:49.085Z,9
2023-03-19T16:22:03.336Z,13
2023-03-19T16:23:17.346Z,13
2023-03-19T16:25:45.745Z,15
2023-03-19T16:26:59.788Z,13
2023-03-19T16:28:13.928Z,14
2023-03-19T16:30:42.159Z,21
2023-03-19T16:31:56.268Z,14
2023-03-19T16:33:10.429Z,14
2023-03-19T16:34:24.578Z,10
2023-03-19T16:36:52.800Z,8
2023-03-19T16:38:06.938Z,6
2023-03-19T16:39:21.058Z,6
2023-03-19T16:41:49.446Z,4
2023-03-19T16:43:03.482Z,3
2023-03-19T16:44:17.647Z,3
2023-03-19T16:46:45.940Z,2
2023-03-19T16:48:00.011Z,3
2023-03-19T16:49:14.180Z,4
2023-03-19T16:51:42.434Z,3
2023-03-19T16:52:56.539Z,4
2023-03-19T16:54:10.664Z,4
2023-03-19T16:56:38.968Z,2
2023-03-19T16:57:53.157Z,2
2023-03-19T16:59:07.195Z,3
2023-03-19T17:00:21.314Z,2
2023-03-19T17:02:49.702Z,3
2023-03-19T17:04:03.744Z,3
2023-03-19T17:05:17.872Z,2
2023-03-19T17:06:32.003Z,2
2023-03-19T17:07:46.130Z,3
2023-03-19T17:09:00.352Z,2
2023-03-19T17:10:14.535Z,2
2023-03-19T17:12:42.655Z,12
2023-03-19T17:13:56.791Z,10
2023-03-19T17:15:10.911Z,9
2023-03-19T17:17:39.240Z,9
2023-03-19T17:18:53.384Z,7
2023-03-19T17:20:07.460Z,4
2023-03-19T17:21:21.590Z,2
2023-03-19T17:23:49.951Z,3
2023-03-19T17:25:04.017Z,3
2023-03-19T17:26:18.206Z,3
2023-03-19T17:28:46.371Z,4
2023-03-19T17:30:00.498Z,4
2023-03-19T17:31:14.771Z,3
2023-03-19T17:33:43.049Z,2
2023-03-19T17:34:57.056Z,4
2023-03-19T17:36:11.217Z,3
2023-03-19T17:38:39.458Z,4
2023-03-19T17:39:53.634Z,3
2023-03-19T17:41:07.721Z,3
2023-03-19T17:42:21.855Z,5
2023-03-19T17:44:50.160Z,4
2023-03-19T17:46:04.313Z,3
2023-03-19T17:47:18.379Z,3
2023-03-19T17:49:46.655Z,6
2023-03-19T17:51:00.770Z,3
2023-03-19T17:52:14.984Z,3
2023-03-19T17:54:43.261Z,4
2023-03-19T17:55:57.378Z,6
2023-03-19T17:57:11.455Z,8
2023-03-19T17:59:39.804Z,5
2023-03-19T18:00:54.017Z,5
2023-03-19T18:02:07.997Z,6
2023-03-19T18:03:22.140Z,5
2023-03-19T18:05:50.372Z,5
2023-03-19T18:07:04.634Z,5
2023-03-19T18:08:18.660Z,4
2023-03-19T18:10:46.918Z,4
2023-03-19T18:12:01.091Z,4
2023-03-19T18:13:15.236Z,6
2023-03-19T18:15:43.462Z,7
2023-03-19T18:16:57.606Z,11
2023-03-19T18:18:11.757Z,12
2023-03-19T18:20:40.092Z,8
2023-03-19T18:21:54.135Z,8
2023-03-19T18:23:08.252Z,10
2023-03-19T18:24:22.398Z,8
2023-03-19T18:26:50.640Z,11
2023-03-19T18:28:04.908Z,12
2023-03-19T18:29:19.025Z,12
2023-03-19T18:31:47.289Z,11
2023-03-19T18:33:01.358Z,11
2023-03-19T18:34:15.457Z,9
2023-03-19T18:36:43.729Z,11
2023-03-19T18:37:57.869Z,12
2023-03-19T18:39:12.026Z,10
2023-03-19T18:41:40.237Z,9
2023-03-19T18:42:54.438Z,9
2023-03-19T18:44:08.591Z,8
2023-03-19T18:45:22.773Z,8
2023-03-19T18:47:50.916Z,7
2023-03-19T18:49:05.116Z,9
2023-03-19T18:50:19.203Z,8
2023-03-19T18:52:47.444Z,10
2023-03-19T18:54:01.578Z,8
2023-03-19T18:55:15.801Z,8
2023-03-19T18:57:52.831Z,8
2023-03-19T18:58:58.125Z,10
2023-03-19T19:00:12.371Z,9
2023-03-19T19:02:40.487Z,10
2023-03-19T19:03:54.746Z,8
2023-03-19T19:05:08.808Z,9
2023-03-19T19:06:28.262Z,9
2023-03-19T19:08:51.174Z,9
2023-03-19T19:10:05.414Z,9
2023-03-19T19:11:19.501Z,8
2023-03-19T19:13:55.797Z,6
2023-03-19T19:15:01.850Z,8
2023-03-19T19:16:16.043Z,7
2023-03-19T19:18:44.316Z,7
2023-03-19T19:19:58.408Z,5
2023-03-19T19:21:12.631Z,6
2023-03-19T19:23:40.783Z,5
2023-03-19T19:24:54.935Z,4
2023-03-19T19:26:09.072Z,5
2023-03-19T19:27:23.297Z,4
2023-03-19T19:29:51.428Z,5
2023-03-19T19:31:05.751Z,5
2023-03-19T19:32:19.886Z,5
2023-03-19T19:34:47.982Z,4
2023-03-19T19:36:02.162Z,5
2023-03-19T19:37:16.265Z,6
2023-03-19T19:39:44.538Z,6
2023-03-19T19:40:58.648Z,6
2023-03-19T19:42:12.824Z,7
2023-03-19T19:44:41.035Z,10
2023-03-19T19:45:55.281Z,9
2023-03-19T19:47:12.667Z,9
2023-03-19T19:48:23.545Z,8
2023-03-19T19:50:51.726Z,8
2023-03-19T19:52:05.846Z,8
2023-03-19T19:53:20.071Z,9
2023-03-19T19:55:48.248Z,11
2023-03-19T19:57:02.375Z,12
2023-03-19T19:58:16.535Z,15
2023-03-19T20:00:53.267Z,15
2023-03-19T20:01:58.952Z,17
2023-03-19T20:03:13.068Z,20
2023-03-19T20:05:41.328Z,27
2023-03-19T20:06:55.480Z,85
2023-03-19T20:08:09.617Z,56
2023-03-19T20:09:23.741Z,178
2023-03-19T20:11:52.000Z,35
2023-03-19T20:13:06.132Z,45
2023-03-19T20:14:20.246Z,40
2023-03-19T20:16:48.551Z,29
2023-03-19T20:18:02.672Z,32
2023-03-19T20:19:16.787Z,28
2023-03-19T20:21:45.219Z,36
2023-03-19T20:22:59.216Z,57
2023-03-19T20:24:13.332Z,154
2023-03-19T20:26:41.584Z,31
2023-03-19T20:27:55.816Z,29
2023-03-19T20:29:09.953Z,30
2023-03-19T20:30:24.095Z,29
2023-03-19T20:32:52.375Z,27
2023-03-19T20:34:06.385Z,27
2023-03-19T20:35:20.574Z,30
2023-03-19T20:37:48.816Z,26
2023-03-19T20:39:02.919Z,23
2023-03-19T20:40:17.067Z,23
2023-03-19T20:42:45.372Z,25
2023-03-19T20:43:59.492Z,23
2023-03-19T20:45:13.611Z,25
2023-03-19T20:47:41.892Z,22
2023-03-19T20:48:56.001Z,22
2023-03-19T20:50:11.470Z,23
2023-03-19T20:51:24.335Z,23
2023-03-19T20:53:52.525Z,28
2023-03-19T20:55:06.664Z,32
2023-03-19T20:56:20.775Z,27
2023-03-19T20:58:49.150Z,25
2023-03-19T21:00:03.223Z,25
2023-03-19T21:01:17.345Z,25
2023-03-19T21:03:45.663Z,24
2023-03-19T21:04:59.746Z,24
2023-03-19T21:06:13.890Z,24
2023-03-19T21:08:42.142Z,28
2023-03-19T21:09:56.315Z,23
2023-03-19T21:11:10.353Z,23
2023-03-19T21:12:24.578Z,24
2023-03-19T21:14:52.855Z,26
2023-03-19T21:16:07.041Z,27
2023-03-19T21:17:21.038Z,25
2023-03-19T21:19:49.514Z,23
2023-03-19T21:21:03.537Z,24
2023-03-19T21:22:17.595Z,24
2023-03-19T21:24:46.018Z,27
2023-03-19T21:26:00.117Z,26
2023-03-19T21:27:14.128Z,26
2023-03-19T21:29:42.470Z,29
2023-03-19T21:30:56.551Z,29
2023-03-19T21:32:10.639Z,30
2023-03-19T21:34:38.924Z,28
2023-03-19T21:35:53.132Z,31
2023-03-19T21:37:07.237Z,31
2023-03-19T21:38:21.309Z,30
2023-03-19T21:40:49.664Z,29
2023-03-19T21:42:03.713Z,35
2023-03-19T21:43:17.866Z,32
2023-03-19T21:44:31.984Z,30
2023-03-19T21:45:46.147Z,33
2023-03-19T21:47:00.324Z,36
2023-03-19T21:48:14.454Z,37
2023-03-19T21:50:50.876Z,37
2023-03-19T21:52:05.081Z,37
2023-03-19T21:53:19.216Z,34
2023-03-19T21:55:47.418Z,40
2023-03-19T21:57:01.542Z,38
2023-03-19T21:58:15.754Z,40
2023-03-19T22:00:44.111Z,42
2023-03-19T22:01:58.037Z,43
2023-03-19T22:03:12.166Z,43
2023-03-19T22:04:26.303Z,44
2023-03-19T22:05:40.488Z,43
2023-03-19T22:06:54.620Z,44
2023-03-19T22:08:08.768Z,40
2023-03-19T22:09:22.842Z,44
2023-03-19T22:11:51.082Z,47
2023-03-19T22:13:05.265Z,46
2023-03-19T22:14:19.439Z,47
2023-03-19T22:16:47.820Z,51
2023-03-19T22:18:01.818Z,54
2023-03-19T22:19:15.907Z,52
2023-03-19T22:21:44.286Z,51
2023-03-19T22:22:58.302Z,57
2023-03-19T22:24:12.539Z,60
2023-03-19T22:26:40.698Z,63
2023-03-19T22:27:54.848Z,56
2023-03-19T22:29:09.005Z,62
2023-03-19T22:30:23.087Z,61
2023-03-19T22:32:51.353Z,59
2023-03-19T22:34:05.541Z,66
2023-03-19T22:35:19.685Z,65
2023-03-19T22:37:47.912Z,74
2023-03-19T22:39:02.059Z,71
2023-03-19T22:40:16.183Z,72
2023-03-19T22:42:44.532Z,74
2023-03-19T22:43:58.570Z,74
2023-03-19T22:45:12.732Z,76
2023-03-19T22:47:40.938Z,76
2023-03-19T22:48:55.208Z,81
2023-03-19T22:50:09.237Z,86
2023-03-19T22:51:23.378Z,83
2023-03-19T22:53:51.611Z,82
2023-03-19T22:55:05.887Z,79
2023-03-19T22:56:19.942Z,82
2023-03-19T22:58:48.177Z,83
2023-03-19T23:00:02.371Z,92
2023-03-19T23:01:18.136Z,85
2023-03-19T23:03:44.691Z,84
2023-03-19T23:04:58.836Z,83
2023-03-19T23:06:27.044Z,89
2023-03-19T23:08:41.211Z,83
2023-03-19T23:09:55.372Z,79
2023-03-19T23:11:09.569Z,79
2023-03-19T23:12:23.696Z,84
2023-03-19T23:14:51.976Z,81
2023-03-19T23:16:06.072Z,79
2023-03-19T23:17:20.260Z,76
2023-03-19T23:19:48.529Z,74
2023-03-19T23:21:02.661Z,82
2023-03-19T23:22:16.743Z,78
2023-03-19T23:24:45.093Z,81
2023-03-19T23:25:59.212Z,86
2023-03-19T23:27:13.240Z,83
2023-03-19T23:29:41.480Z,83
2023-03-19T23:30:55.667Z,91
2023-03-19T23:32:09.789Z,90
2023-03-19T23:33:23.976Z,87
2023-03-19T23:35:52.179Z,92
2023-03-19T23:37:06.304Z,93